sensor_id;sensor_type;location;lat;lon;timestamp;pressure;altitude;pressure_sealevel;temperature;humidity
57442;BME280;43284;47.042;15.498;2024-03-06T00:01:31;96963.91;;;4.60;100.00
57442;BME280;43284;47.042;15.498;2024-03-06T00:03:56;96970.88;;;4.57;100.00
57442;BME280;43284;47.042;15.498;2024-03-06T00:06:25;96974.44;;;4.52;100.00
57442;BME280;43284;47.042;15.498;2024-03-06T00:08:51;96973.72;;;4.49;100.00
57442;BME280;43284;47.042;15.498;2024-03-06T00:11:19;96970.34;;;4.45;100.00
57442;BME280;43284;47.042;15.498;2024-03-06T00:13:45;96973.84;;;4.44;100.00
57442;BME280;43284;47.042;15.498;2024-03-06T00:16:16;96970.38;;;4.44;100.00
57442;BME280;43284;47.042;15.498;2024-03-06T00:18:42;96981.59;;;4.44;100.00
57442;BME280;43284;47.042;15.498;2024-03-06T00:21:08;96979.88;;;4.43;100.00
57442;BME280;43284;47.042;15.498;2024-03-06T00:24:01;96977.44;;;4.39;100.00
57442;BME280;43284;47.042;15.498;2024-03-06T00:26:47;96984.38;;;4.37;100.00
57442;BME280;43284;47.042;15.498;2024-03-06T00:35:00;96990.38;;;4.39;100.00
57442;BME280;43284;47.042;15.498;2024-03-06T00:37:52;96990.38;;;4.39;100.00
57442;BME280;43284;47.042;15.498;2024-03-06T00:40:22;96992.03;;;4.41;100.00
57442;BME280;43284;47.042;15.498;2024-03-06T00:43:02;96984.25;;;4.41;100.00
57442;BME280;43284;47.042;15.498;2024-03-06T00:45:38;96986.78;;;4.44;100.00
57442;BME280;43284;47.042;15.498;2024-03-06T00:48:16;96984.09;;;4.47;100.00
57442;BME280;43284;47.042;15.498;2024-03-06T00:51:12;96988.47;;;4.45;100.00
57442;BME280;43284;47.042;15.498;2024-03-06T00:53:55;96979.00;;;4.44;100.00
57442;BME280;43284;47.042;15.498;2024-03-06T00:56:28;96978.03;;;4.48;100.00
57442;BME280;43284;47.042;15.498;2024-03-06T00:59:14;96979.94;;;4.42;100.00
57442;BME280;43284;47.042;15.498;2024-03-06T01:01:55;96982.56;;;4.40;100.00
57442;BME280;43284;47.042;15.498;2024-03-06T01:04:31;96980.81;;;4.41;100.00
57442;BME280;43284;47.042;15.498;2024-03-06T01:07:18;96986.03;;;4.39;100.00
57442;BME280;43284;47.042;15.498;2024-03-06T01:09:44;96981.66;;;4.41;100.00
57442;BME280;43284;47.042;15.498;2024-03-06T01:12:09;96991.16;;;4.42;100.00
57442;BME280;43284;47.042;15.498;2024-03-06T01:14:48;96989.38;;;4.44;100.00
57442;BME280;43284;47.042;15.498;2024-03-06T01:17:39;96988.56;;;4.42;100.00
57442;BME280;43284;47.042;15.498;2024-03-06T01:20:16;96987.72;;;4.42;100.00
57442;BME280;43284;47.042;15.498;2024-03-06T01:22:46;96990.25;;;4.43;100.00
57442;BME280;43284;47.042;15.498;2024-03-06T01:25:22;96988.47;;;4.45;100.00
57442;BME280;43284;47.042;15.498;2024-03-06T01:27:50;96989.31;;;4.46;100.00
57442;BME280;43284;47.042;15.498;2024-03-06T01:30:21;96981.50;;;4.47;100.00
57442;BME280;43284;47.042;15.498;2024-03-06T01:32:46;96979.84;;;4.45;100.00
57442;BME280;43284;47.042;15.498;2024-03-06T01:35:18;96983.38;;;4.42;100.00
57442;BME280;43284;47.042;15.498;2024-03-06T01:37:59;96982.47;;;4.43;100.00
57442;BME280;43284;47.042;15.498;2024-03-06T01:40:48;96973.16;;;4.38;100.00
57442;BME280;43284;47.042;15.498;2024-03-06T01:43:26;96974.00;;;4.38;100.00
57442;BME280;43284;47.042;15.498;2024-03-06T01:45:54;96976.66;;;4.35;100.00
57442;BME280;43284;47.042;15.498;2024-03-06T01:48:27;96982.84;;;4.29;100.00
57442;BME280;43284;47.042;15.498;2024-03-06T01:50:56;96980.41;;;4.23;100.00
57442;BME280;43284;47.042;15.498;2024-03-06T01:53:22;96972.66;;;4.23;100.00
57442;BME280;43284;47.042;15.498;2024-03-06T01:55:53;96976.97;;;4.24;100.00
57442;BME280;43284;47.042;15.498;2024-03-06T01:58:24;96976.19;;;4.21;100.00
57442;BME280;43284;47.042;15.498;2024-03-06T02:01:06;96971.94;;;4.18;100.00
57442;BME280;43284;47.042;15.498;2024-03-06T02:03:35;96965.13;;;4.16;100.00
57442;BME280;43284;47.042;15.498;2024-03-06T02:06:18;96974.69;;;4.12;100.00
57442;BME280;43284;47.042;15.498;2024-03-06T02:08:47;96968.72;;;4.08;100.00
57442;BME280;43284;47.042;15.498;2024-03-06T02:11:27;96963.50;;;4.11;100.00
57442;BME280;43284;47.042;15.498;2024-03-06T02:13:53;96969.50;;;4.12;100.00
57442;BME280;43284;47.042;15.498;2024-03-06T02:16:19;96964.44;;;4.09;100.00
57442;BME280;43284;47.042;15.498;2024-03-06T02:18:57;96965.41;;;4.05;100.00
57442;BME280;43284;47.042;15.498;2024-03-06T02:21:31;96967.06;;;4.06;100.00
57442;BME280;43284;47.042;15.498;2024-03-06T02:24:15;96957.75;;;4.00;100.00
57442;BME280;43284;47.042;15.498;2024-03-06T02:26:43;96966.38;;;3.99;100.00
57442;BME280;43284;47.042;15.498;2024-03-06T02:29:15;96957.78;;;3.99;100.00
57442;BME280;43284;47.042;15.498;2024-03-06T02:32:04;96951.91;;;3.94;100.00
57442;BME280;43284;47.042;15.498;2024-03-06T02:38:00;96949.25;;;3.95;100.00
57442;BME280;43284;47.042;15.498;2024-03-06T02:40:42;96949.31;;;3.94;100.00
57442;BME280;43284;47.042;15.498;2024-03-06T02:43:09;96951.16;;;3.88;100.00
57442;BME280;43284;47.042;15.498;2024-03-06T02:45:52;96949.41;;;3.89;100.00
57442;BME280;43284;47.042;15.498;2024-03-06T02:48:24;96946.88;;;3.87;100.00
57442;BME280;43284;47.042;15.498;2024-03-06T02:51:00;96953.00;;;3.83;100.00
57442;BME280;43284;47.042;15.498;2024-03-06T02:53:25;96948.78;;;3.81;100.00
57442;BME280;43284;47.042;15.498;2024-03-06T02:56:05;96944.34;;;3.84;100.00
57442;BME280;43284;47.042;15.498;2024-03-06T02:58:35;96942.69;;;3.82;100.00
57442;BME280;43284;47.042;15.498;2024-03-06T03:01:03;96945.28;;;3.82;100.00
57442;BME280;43284;47.042;15.498;2024-03-06T03:03:34;96946.19;;;3.81;100.00
57442;BME280;43284;47.042;15.498;2024-03-06T03:06:16;96949.63;;;3.81;100.00
57442;BME280;43284;47.042;15.498;2024-03-06T03:08:48;96948.81;;;3.78;100.00
57442;BME280;43284;47.042;15.498;2024-03-06T03:11:20;96949.72;;;3.77;100.00
57442;BME280;43284;47.042;15.498;2024-03-06T03:13:45;96950.66;;;3.74;100.00
57442;BME280;43284;47.042;15.498;2024-03-06T03:16:18;96949.78;;;3.74;100.00
57442;BME280;43284;47.042;15.498;2024-03-06T03:18:47;96954.13;;;3.73;100.00
57442;BME280;43284;47.042;15.498;2024-03-06T03:21:16;96951.56;;;3.71;100.00
57442;BME280;43284;47.042;15.498;2024-03-06T03:23:41;96952.47;;;3.70;100.00
57442;BME280;43284;47.042;15.498;2024-03-06T03:26:08;96956.78;;;3.70;100.00
57442;BME280;43284;47.042;15.498;2024-03-06T03:28:40;96956.78;;;3.70;100.00
57442;BME280;43284;47.042;15.498;2024-03-06T03:31:09;96957.66;;;3.69;100.00
57442;BME280;43284;47.042;15.498;2024-03-06T03:33:42;96959.44;;;3.67;100.00
57442;BME280;43284;47.042;15.498;2024-03-06T03:36:08;96960.31;;;3.67;100.00
57442;BME280;43284;47.042;15.498;2024-03-06T03:38:35;96962.00;;;3.67;100.00
57442;BME280;43284;47.042;15.498;2024-03-06T03:41:12;96963.75;;;3.66;100.00
57442;BME280;43284;47.042;15.498;2024-03-06T03:43:39;96964.66;;;3.65;100.00
57442;BME280;43284;47.042;15.498;2024-03-06T03:46:08;96964.66;;;3.65;100.00
57442;BME280;43284;47.042;15.498;2024-03-06T03:48:35;96963.06;;;3.60;100.00
57442;BME280;43284;47.042;15.498;2024-03-06T03:51:04;96959.75;;;3.55;100.00
57442;BME280;43284;47.042;15.498;2024-03-06T03:53:30;96958.84;;;3.56;100.00
57442;BME280;43284;47.042;15.498;2024-03-06T03:56:02;96962.34;;;3.55;100.00
57442;BME280;43284;47.042;15.498;2024-03-06T03:58:28;96964.91;;;3.55;100.00
57442;BME280;43284;47.042;15.498;2024-03-06T04:00:54;96959.69;;;3.56;100.00
57442;BME280;43284;47.042;15.498;2024-03-06T04:03:21;96964.00;;;3.57;100.00
57442;BME280;43284;47.042;15.498;2024-03-06T04:05:48;96966.53;;;3.59;100.00
57442;BME280;43284;47.042;15.498;2024-03-06T04:08:14;96962.19;;;3.61;100.00
57442;BME280;43284;47.042;15.498;2024-03-06T04:10:42;96967.31;;;3.62;100.00
57442;BME280;43284;47.042;15.498;2024-03-06T04:13:07;96962.94;;;3.64;100.00
57442;BME280;43284;47.042;15.498;2024-03-06T04:15:33;96962.81;;;3.70;100.00
57442;BME280;43284;47.042;15.498;2024-03-06T04:18:01;96962.88;;;3.67;100.00
57442;BME280;43284;47.042;15.498;2024-03-06T04:20:30;96964.59;;;3.67;100.00
57442;BME280;43284;47.042;15.498;2024-03-06T04:22:55;96965.41;;;3.69;100.00
57442;BME280;43284;47.042;15.498;2024-03-06T04:25:21;96972.31;;;3.70;100.00
57442;BME280;43284;47.042;15.498;2024-03-06T04:27:48;96964.47;;;3.71;100.00
57442;BME280;43284;47.042;15.498;2024-03-06T04:30:14;96968.75;;;3.74;100.00
57442;BME280;43284;47.042;15.498;2024-03-06T04:32:40;96971.28;;;3.76;100.00
57442;BME280;43284;47.042;15.498;2024-03-06T04:35:06;96973.94;;;3.74;100.00
57442;BME280;43284;47.042;15.498;2024-03-06T04:37:32;96969.56;;;3.76;100.00
57442;BME280;43284;47.042;15.498;2024-03-06T04:39:58;96969.50;;;3.78;100.00
57442;BME280;43284;47.042;15.498;2024-03-06T04:42:24;96972.03;;;3.81;100.00
57442;BME280;43284;47.042;15.498;2024-03-06T04:44:50;96972.78;;;3.84;100.00
57442;BME280;43284;47.042;15.498;2024-03-06T04:47:15;96977.03;;;3.87;100.00
57442;BME280;43284;47.042;15.498;2024-03-06T04:49:41;96978.75;;;3.88;100.00
57442;BME280;43284;47.042;15.498;2024-03-06T04:52:08;96975.22;;;3.90;100.00
57442;BME280;43284;47.042;15.498;2024-03-06T04:54:34;96988.13;;;3.92;100.00
57442;BME280;43284;47.042;15.498;2024-03-06T04:57:00;96992.53;;;3.87;100.00
57442;BME280;43284;47.042;15.498;2024-03-06T04:59:28;96996.84;;;3.88;100.00
57442;BME280;43284;47.042;15.498;2024-03-06T05:01:54;97002.81;;;3.91;100.00
57442;BME280;43284;47.042;15.498;2024-03-06T05:04:19;96996.72;;;3.92;100.00
57442;BME280;43284;47.042;15.498;2024-03-06T05:06:48;96997.56;;;3.93;100.00
57442;BME280;43284;47.042;15.498;2024-03-06T05:09:13;96994.13;;;3.94;100.00
57442;BME280;43284;47.042;15.498;2024-03-06T05:11:40;96990.59;;;3.97;100.00
57442;BME280;43284;47.042;15.498;2024-03-06T05:14:05;97000.91;;;3.98;100.00
57442;BME280;43284;47.042;15.498;2024-03-06T05:16:31;96995.69;;;4.00;100.00
57442;BME280;43284;47.042;15.498;2024-03-06T05:18:56;96992.16;;;4.02;100.00
57442;BME280;43284;47.042;15.498;2024-03-06T05:21:22;96992.13;;;4.04;100.00
57442;BME280;43284;47.042;15.498;2024-03-06T05:23:48;96992.09;;;4.05;100.00
57442;BME280;43284;47.042;15.498;2024-03-06T05:26:14;96999.78;;;4.08;100.00
57442;BME280;43284;47.042;15.498;2024-03-06T05:28:41;97002.34;;;4.08;100.00
57442;BME280;43284;47.042;15.498;2024-03-06T05:31:16;97001.50;;;4.08;100.00
57442;BME280;43284;47.042;15.498;2024-03-06T05:33:46;96995.47;;;4.09;100.00
57442;BME280;43284;47.042;15.498;2024-03-06T05:36:12;97003.16;;;4.10;100.00
57442;BME280;43284;47.042;15.498;2024-03-06T05:38:45;97004.81;;;4.13;100.00
57442;BME280;43284;47.042;15.498;2024-03-06T05:41:10;97003.94;;;4.14;100.00
57442;BME280;43284;47.042;15.498;2024-03-06T05:43:36;97008.19;;;4.17;100.00
57442;BME280;43284;47.042;15.498;2024-03-06T05:46:02;97009.84;;;4.19;100.00
57442;BME280;43284;47.042;15.498;2024-03-06T05:48:35;97009.81;;;4.21;100.00
57442;BME280;43284;47.042;15.498;2024-03-06T05:51:00;97003.72;;;4.23;100.00
57442;BME280;43284;47.042;15.498;2024-03-06T05:53:26;97006.28;;;4.23;100.00
57442;BME280;43284;47.042;15.498;2024-03-06T05:55:54;97003.69;;;4.25;100.00
57442;BME280;43284;47.042;15.498;2024-03-06T05:58:20;97007.91;;;4.27;100.00
57442;BME280;43284;47.042;15.498;2024-03-06T06:00:46;97018.28;;;4.26;100.00
57442;BME280;43284;47.042;15.498;2024-03-06T06:03:11;97014.75;;;4.30;100.00
57442;BME280;43284;47.042;15.498;2024-03-06T06:05:38;97016.38;;;4.34;100.00
57442;BME280;43284;47.042;15.498;2024-03-06T06:08:05;97019.78;;;4.36;100.00
57442;BME280;43284;47.042;15.498;2024-03-06T06:10:33;97018.84;;;4.39;100.00
57442;BME280;43284;47.042;15.498;2024-03-06T06:13:03;97025.75;;;4.38;100.00
57442;BME280;43284;47.042;15.498;2024-03-06T06:15:31;97025.66;;;4.41;100.00
57442;BME280;43284;47.042;15.498;2024-03-06T06:18:00;97030.78;;;4.44;100.00
57442;BME280;43284;47.042;15.498;2024-03-06T06:20:25;97038.44;;;4.47;100.00
57442;BME280;43284;47.042;15.498;2024-03-06T06:22:54;97031.47;;;4.51;100.00
57442;BME280;43284;47.042;15.498;2024-03-06T06:25:20;97040.91;;;4.52;100.00
57442;BME280;43284;47.042;15.498;2024-03-06T06:27:45;97036.47;;;4.57;100.00
57442;BME280;43284;47.042;15.498;2024-03-06T06:30:11;97038.06;;;4.61;100.00
57442;BME280;43284;47.042;15.498;2024-03-06T06:32:37;97036.22;;;4.66;100.00
57442;BME280;43284;47.042;15.498;2024-03-06T06:35:04;97040.47;;;4.69;100.00
57442;BME280;43284;47.042;15.498;2024-03-06T06:37:30;97037.75;;;4.73;100.00
57442;BME280;43284;47.042;15.498;2024-03-06T06:39:56;97038.47;;;4.79;100.00
57442;BME280;43284;47.042;15.498;2024-03-06T06:42:21;97038.38;;;4.83;100.00
57442;BME280;43284;47.042;15.498;2024-03-06T06:44:47;97040.72;;;4.91;100.00
57442;BME280;43284;47.042;15.498;2024-03-06T06:47:12;97045.78;;;4.95;100.00
57442;BME280;43284;47.042;15.498;2024-03-06T06:49:41;97048.22;;;5.00;100.00
57442;BME280;43284;47.042;15.498;2024-03-06T06:52:07;97043.78;;;5.05;100.00
57442;BME280;43284;47.042;15.498;2024-03-06T06:54:33;97046.25;;;5.10;100.00
57442;BME280;43284;47.042;15.498;2024-03-06T06:56:58;97045.25;;;5.14;100.00
57442;BME280;43284;47.042;15.498;2024-03-06T06:59:26;97050.22;;;5.22;100.00
57442;BME280;43284;47.042;15.498;2024-03-06T07:01:53;97044.84;;;5.28;100.00
57442;BME280;43284;47.042;15.498;2024-03-06T07:04:19;97036.84;;;5.35;100.00
57442;BME280;43284;47.042;15.498;2024-03-06T07:06:46;97034.97;;;5.41;100.00
57442;BME280;43284;47.042;15.498;2024-03-06T07:09:14;97035.66;;;5.46;100.00
57442;BME280;43284;47.042;15.498;2024-03-06T07:11:43;97042.34;;;5.53;100.00
57442;BME280;43284;47.042;15.498;2024-03-06T07:14:10;97048.28;;;5.58;100.00
57442;BME280;43284;47.042;15.498;2024-03-06T07:16:42;97042.91;;;5.64;100.00
57442;BME280;43284;47.042;15.498;2024-03-06T07:19:08;97049.66;;;5.68;100.00
57442;BME280;43284;47.042;15.498;2024-03-06T07:21:43;97043.41;;;5.75;100.00
57442;BME280;43284;47.042;15.498;2024-03-06T07:24:09;97039.75;;;5.81;100.00
57442;BME280;43284;47.042;15.498;2024-03-06T07:26:34;97044.81;;;5.86;100.00
57442;BME280;43284;47.042;15.498;2024-03-06T07:29:00;97046.41;;;5.90;100.00
57442;BME280;43284;47.042;15.498;2024-03-06T07:31:26;97055.84;;;5.92;100.00
57442;BME280;43284;47.042;15.498;2024-03-06T07:33:52;97051.44;;;5.96;100.00
57442;BME280;43284;47.042;15.498;2024-03-06T07:36:20;97048.66;;;6.02;100.00
57442;BME280;43284;47.042;15.498;2024-03-06T07:38:49;97053.69;;;6.07;100.00
57442;BME280;43284;47.042;15.498;2024-03-06T07:41:20;97044.88;;;6.12;100.00
57442;BME280;43284;47.042;15.498;2024-03-06T07:43:45;97050.72;;;6.19;100.00
57442;BME280;43284;47.042;15.498;2024-03-06T07:46:11;97052.34;;;6.22;100.00
57442;BME280;43284;47.042;15.498;2024-03-06T07:48:37;97054.75;;;6.28;100.00
57442;BME280;43284;47.042;15.498;2024-03-06T07:51:07;97050.28;;;6.31;100.00
57442;BME280;43284;47.042;15.498;2024-03-06T07:53:32;97051.91;;;6.34;100.00
57442;BME280;43284;47.042;15.498;2024-03-06T07:56:02;97056.13;;;6.38;100.00
57442;BME280;43284;47.042;15.498;2024-03-06T07:58:28;97060.31;;;6.42;100.00
57442;BME280;43284;47.042;15.498;2024-03-06T08:00:54;97055.03;;;6.45;100.00
57442;BME280;43284;47.042;15.498;2024-03-06T08:03:21;97053.97;;;6.51;100.00
57442;BME280;43284;47.042;15.498;2024-03-06T08:05:51;97058.16;;;6.55;100.00
57442;BME280;43284;47.042;15.498;2024-03-06T08:08:18;97062.28;;;6.60;100.00
57442;BME280;43284;47.042;15.498;2024-03-06T08:10:43;97056.94;;;6.65;100.00
57442;BME280;43284;47.042;15.498;2024-03-06T08:13:10;97059.47;;;6.67;100.00
57442;BME280;43284;47.042;15.498;2024-03-06T08:15:36;97065.41;;;6.70;100.00
57442;BME280;43284;47.042;15.498;2024-03-06T08:18:01;97060.09;;;6.73;100.00
57442;BME280;43284;47.042;15.498;2024-03-06T08:20:31;97060.81;;;6.78;100.00
57442;BME280;43284;47.042;15.498;2024-03-06T08:22:58;97067.59;;;6.83;100.00
57442;BME280;43284;47.042;15.498;2024-03-06T08:25:24;97068.22;;;6.89;100.00
57442;BME280;43284;47.042;15.498;2024-03-06T08:27:49;97070.59;;;6.95;100.00
57442;BME280;43284;47.042;15.498;2024-03-06T08:30:18;97070.44;;;7.00;100.00
57442;BME280;43284;47.042;15.498;2024-03-06T08:32:44;97072.88;;;7.05;100.00
57442;BME280;43284;47.042;15.498;2024-03-06T08:35:13;97075.19;;;7.12;100.00
57442;BME280;43284;47.042;15.498;2024-03-06T08:37:40;97081.28;;;7.11;100.00
57442;BME280;43284;47.042;15.498;2024-03-06T08:40:09;97079.53;;;7.12;100.00
57442;BME280;43284;47.042;15.498;2024-03-06T08:42:43;97081.88;;;7.19;100.00
57442;BME280;43284;47.042;15.498;2024-03-06T08:45:10;97081.63;;;7.26;100.00
57442;BME280;43284;47.042;15.498;2024-03-06T08:47:38;97082.25;;;7.32;100.00
57442;BME280;43284;47.042;15.498;2024-03-06T08:50:07;97083.84;;;7.36;100.00
57442;BME280;43284;47.042;15.498;2024-03-06T08:52:33;97084.63;;;7.38;100.00
57442;BME280;43284;47.042;15.498;2024-03-06T08:55:02;97080.03;;;7.45;100.00
57442;BME280;43284;47.042;15.498;2024-03-06T08:57:31;97081.75;;;7.46;100.00
57442;BME280;43284;47.042;15.498;2024-03-06T09:00:00;97084.28;;;7.48;100.00
57442;BME280;43284;47.042;15.498;2024-03-06T09:02:26;97084.06;;;7.54;100.00
57442;BME280;43284;47.042;15.498;2024-03-06T09:04:55;97084.19;;;7.51;100.00
57442;BME280;43284;47.042;15.498;2024-03-06T09:07:21;97092.03;;;7.49;100.00
57442;BME280;43284;47.042;15.498;2024-03-06T09:09:49;97085.81;;;7.53;100.00
57442;BME280;43284;47.042;15.498;2024-03-06T09:12:15;97093.38;;;7.59;100.00
57442;BME280;43284;47.042;15.498;2024-03-06T09:14:41;97086.28;;;7.63;100.00
57442;BME280;43284;47.042;15.498;2024-03-06T09:17:07;97089.03;;;7.60;100.00
57442;BME280;43284;47.042;15.498;2024-03-06T09:19:35;97090.78;;;7.59;100.00
57442;BME280;43284;47.042;15.498;2024-03-06T09:22:01;97082.69;;;7.67;100.00
57442;BME280;43284;47.042;15.498;2024-03-06T09:24:28;97087.78;;;7.70;100.00
57442;BME280;43284;47.042;15.498;2024-03-06T09:26:54;97093.09;;;7.67;100.00
57442;BME280;43284;47.042;15.498;2024-03-06T09:29:20;97092.84;;;7.73;100.00
57442;BME280;43284;47.042;15.498;2024-03-06T09:31:46;97091.09;;;7.74;100.00
57442;BME280;43284;47.042;15.498;2024-03-06T09:34:15;97083.97;;;7.79;100.00
57442;BME280;43284;47.042;15.498;2024-03-06T09:36:48;97078.59;;;7.83;100.00
57442;BME280;43284;47.042;15.498;2024-03-06T09:39:18;97089.00;;;7.83;100.00
57442;BME280;43284;47.042;15.498;2024-03-06T09:41:51;97093.53;;;7.78;100.00
57442;BME280;43284;47.042;15.498;2024-03-06T09:44:18;97089.22;;;7.77;100.00
57442;BME280;43284;47.042;15.498;2024-03-06T09:46:46;97090.41;;;7.92;100.00
57442;BME280;43284;47.042;15.498;2024-03-06T09:49:15;97083.97;;;8.01;100.00
57442;BME280;43284;47.042;15.498;2024-03-06T09:51:48;97088.25;;;8.02;100.00
57442;BME280;43284;47.042;15.498;2024-03-06T09:54:19;97089.75;;;8.09;100.00
57442;BME280;43284;47.042;15.498;2024-03-06T09:56:46;97089.47;;;8.15;100.00
57442;BME280;43284;47.042;15.498;2024-03-06T09:59:14;97082.41;;;8.19;100.00
57442;BME280;43284;47.042;15.498;2024-03-06T10:01:49;97086.72;;;8.20;100.00
57442;BME280;43284;47.042;15.498;2024-03-06T10:04:25;97083.00;;;8.25;100.00
57442;BME280;43284;47.042;15.498;2024-03-06T10:06:59;97085.47;;;8.29;100.00
57442;BME280;43284;47.042;15.498;2024-03-06T10:09:25;97088.56;;;8.38;100.00
57442;BME280;43284;47.042;15.498;2024-03-06T10:11:51;97084.72;;;8.27;99.41
57442;BME280;43284;47.042;15.498;2024-03-06T10:14:22;97085.47;;;8.29;99.33
57442;BME280;43284;47.042;15.498;2024-03-06T10:16:55;97082.81;;;8.30;98.34
57442;BME280;43284;47.042;15.498;2024-03-06T10:19:22;97083.28;;;8.40;98.80
57442;BME280;43284;47.042;15.498;2024-03-06T10:21:48;97080.53;;;8.44;100.00
57442;BME280;43284;47.042;15.498;2024-03-06T10:24:21;97085.16;;;8.36;99.05
57442;BME280;43284;47.042;15.498;2024-03-06T10:26:52;97084.19;;;8.39;98.83
57442;BME280;43284;47.042;15.498;2024-03-06T10:29:20;97082.75;;;8.32;99.96
57442;BME280;43284;47.042;15.498;2024-03-06T10:31:53;97079.13;;;8.36;100.00
57442;BME280;43284;47.042;15.498;2024-03-06T10:34:26;97080.44;;;8.46;100.00
57442;BME280;43284;47.042;15.498;2024-03-06T10:36:59;97082.69;;;8.55;100.00
57442;BME280;43284;47.042;15.498;2024-03-06T10:39:25;97081.66;;;8.59;100.00
57442;BME280;43284;47.042;15.498;2024-03-06T10:41:55;97082.59;;;8.57;100.00
57442;BME280;43284;47.042;15.498;2024-03-06T10:44:25;97081.56;;;8.61;100.00
57442;BME280;43284;47.042;15.498;2024-03-06T10:46:58;97078.91;;;8.62;100.00
57442;BME280;43284;47.042;15.498;2024-03-06T10:49:25;97082.94;;;8.70;100.00
57442;BME280;43284;47.042;15.498;2024-03-06T10:51:57;97075.00;;;8.73;100.00
57442;BME280;43284;47.042;15.498;2024-03-06T10:54:26;97076.75;;;8.72;100.00
57442;BME280;43284;47.042;15.498;2024-03-06T10:56:53;97074.88;;;8.76;100.00
57442;BME280;43284;47.042;15.498;2024-03-06T10:59:26;97073.78;;;8.81;100.00
57442;BME280;43284;47.042;15.498;2024-03-06T11:01:56;97074.41;;;8.86;100.00
57442;BME280;43284;47.042;15.498;2024-03-06T11:04:25;97070.28;;;8.81;100.00
57442;BME280;43284;47.042;15.498;2024-03-06T11:06:56;97068.00;;;8.94;99.40
57442;BME280;43284;47.042;15.498;2024-03-06T11:09:23;97069.50;;;8.99;98.84
57442;BME280;43284;47.042;15.498;2024-03-06T11:11:52;97068.00;;;8.94;99.55
57442;BME280;43284;47.042;15.498;2024-03-06T11:14:24;97068.25;;;8.87;99.79
57442;BME280;43284;47.042;15.498;2024-03-06T11:17:09;97067.94;;;8.95;98.88
57442;BME280;43284;47.042;15.498;2024-03-06T11:28:25;97063.19;;;8.84;100.00
57442;BME280;43284;47.042;15.498;2024-03-06T11:31:06;97054.13;;;8.93;99.84
57442;BME280;43284;47.042;15.498;2024-03-06T11:33:43;97059.41;;;8.92;100.00
57442;BME280;43284;47.042;15.498;2024-03-06T11:36:28;97053.97;;;8.96;99.47
57442;BME280;43284;47.042;15.498;2024-03-06T11:39:05;97045.78;;;9.05;100.00
57442;BME280;43284;47.042;15.498;2024-03-06T11:41:47;97045.06;;;9.02;100.00
57442;BME280;43284;47.042;15.498;2024-03-06T11:44:20;97038.53;;;9.12;100.00
57442;BME280;43284;47.042;15.498;2024-03-06T11:47:01;97038.06;;;9.23;100.00
57442;BME280;43284;47.042;15.498;2024-03-06T11:49:28;97035.66;;;9.18;100.00
57442;BME280;43284;47.042;15.498;2024-03-06T11:52:08;97034.78;;;8.99;100.00
57442;BME280;43284;47.042;15.498;2024-03-06T11:54:35;97043.69;;;8.93;100.00
57442;BME280;43284;47.042;15.498;2024-03-06T11:57:02;97031.75;;;9.08;100.00
57442;BME280;43284;47.042;15.498;2024-03-06T11:59:30;97030.75;;;9.11;100.00
57442;BME280;43284;47.042;15.498;2024-03-06T12:01:58;97026.63;;;9.25;100.00
57442;BME280;43284;47.042;15.498;2024-03-06T12:04:24;97030.84;;;9.28;97.90
57442;BME280;43284;47.042;15.498;2024-03-06T12:06:50;97020.91;;;9.36;98.82
57442;BME280;43284;47.042;15.498;2024-03-06T12:09:19;97026.13;;;9.17;97.09
57442;BME280;43284;47.042;15.498;2024-03-06T12:11:47;97025.47;;;9.31;100.00
57442;BME280;43284;47.042;15.498;2024-03-06T12:14:19;97019.31;;;9.34;96.92
57442;BME280;43284;47.042;15.498;2024-03-06T12:16:59;97011.00;;;9.62;95.05
57442;BME280;43284;47.042;15.498;2024-03-06T12:19:38;97009.13;;;9.46;95.54
57442;BME280;43284;47.042;15.498;2024-03-06T12:22:06;97005.41;;;9.52;93.04
57442;BME280;43284;47.042;15.498;2024-03-06T12:24:33;97004.34;;;9.56;92.53
57442;BME280;43284;47.042;15.498;2024-03-06T12:27:04;97006.88;;;9.58;93.42
57442;BME280;43284;47.042;15.498;2024-03-06T12:29:34;97003.44;;;9.38;94.10
57442;BME280;43284;47.042;15.498;2024-03-06T12:32:01;97003.44;;;9.38;94.26
57442;BME280;43284;47.042;15.498;2024-03-06T12:34:27;97000.38;;;9.28;94.84
57442;BME280;43284;47.042;15.498;2024-03-06T12:36:52;96999.19;;;9.36;94.36
57442;BME280;43284;47.042;15.498;2024-03-06T12:39:18;96994.91;;;9.35;95.63
57442;BME280;43284;47.042;15.498;2024-03-06T12:41:51;96994.47;;;9.44;96.73
57442;BME280;43284;47.042;15.498;2024-03-06T12:44:19;96994.50;;;9.61;97.99
57442;BME280;43284;47.042;15.498;2024-03-06T12:46:45;96991.50;;;9.88;93.57
57442;BME280;43284;47.042;15.498;2024-03-06T12:49:10;96988.34;;;9.99;92.05
57442;BME280;43284;47.042;15.498;2024-03-06T12:51:39;96987.16;;;10.06;94.58
57442;BME280;43284;47.042;15.498;2024-03-06T12:54:05;96978.97;;;10.31;91.77
57442;BME280;43284;47.042;15.498;2024-03-06T12:56:34;96982.38;;;10.14;89.69
57442;BME280;43284;47.042;15.498;2024-03-06T12:58:59;96974.44;;;10.35;88.79
57442;BME280;43284;47.042;15.498;2024-03-06T13:01:25;96975.03;;;10.57;87.03
57442;BME280;43284;47.042;15.498;2024-03-06T13:03:50;96973.50;;;10.86;85.79
57442;BME280;43284;47.042;15.498;2024-03-06T13:06:16;96971.34;;;11.10;84.04
57442;BME280;43284;47.042;15.498;2024-03-06T13:08:41;96957.88;;;11.18;80.29
57442;BME280;43284;47.042;15.498;2024-03-06T13:11:07;96960.84;;;11.44;77.96
57442;BME280;43284;47.042;15.498;2024-03-06T13:13:37;96949.59;;;11.58;77.98
57442;BME280;43284;47.042;15.498;2024-03-06T13:16:08;96947.66;;;11.61;77.88
57442;BME280;43284;47.042;15.498;2024-03-06T13:18:40;96949.94;;;11.36;76.46
57442;BME280;43284;47.042;15.498;2024-03-06T13:21:06;96940.81;;;11.43;77.40